Aktuální počasí v Česku a ve světě - METAR

Seznam meteostanic umístěných nejčasteji na letišti v ČR a ve světě

Vyhledat místa podle abecedy:
A B C D E F G H I J K L M N O P Q R S T U V W X Y Z

Filtrovat:

ID stanice:
a/nebo
Název místa (fulltext):
 
Místo (ID)Naposledy načteno 
Červená - Opava (Cervena/uL) 14.08.2020 13:00 UTC Zobrazit data
Místo: Červená - Opava
Teplota: 17 °C (pocitová: 14.9 °C)
Vítr: 4 m/s z(e) 170°
Počasí: skoro zataženo
Dohlednost: 25 km
Zákl. oblačnosti: 2/8 720 m;6/8 2100 m
Vlhkost: 77%
České Budějovice (C.Budej/po) 14.08.2020 13:00 UTC Zobrazit data
Místo: České Budějovice
Teplota: 26 °C (pocitová: 27.3 °C)
Vítr: 3 m/s z(e) 280°
Počasí: oblačno
Dohlednost: 28 km
Zákl. oblačnosti: 1/8 1080 m;3/8 1410 m
Vlhkost: 58%
Cheb (Cheb) 14.08.2020 13:00 UTC Zobrazit data
Místo: Cheb
Teplota: 19 °C (pocitová: 18.5 °C)
Vítr: 2 m/s z(e) 0°
Počasí: skoro zataženo
Dohlednost: 13 km
Zákl. oblačnosti: 1/8 450 m;3/8 450 m
Vlhkost: 94%
Chotusice - Čáslav (Caslav) 14.08.2020 13:00 UTC Zobrazit data
Místo: Chotusice - Čáslav
Teplota: 28 °C (pocitová: 30 °C)
Vítr: 2 m/s z(e) 340°
Počasí: zataženo
Dohlednost: 25 km
Zákl. oblačnosti: 2/8 1020 m;6/8 1320 m
Vlhkost: 55%
Churáňov (Churanov) 14.08.2020 13:00 UTC Zobrazit data
Místo: Churáňov
Teplota: 19 °C (pocitová: 18.5 °C)
Vítr: 2 m/s z(e) 0°
Počasí: skoro zataženo
Dohlednost: 35 km
Zákl. oblačnosti: 1/8 660 m;5/8 660 m
Vlhkost: 73%
Cairo (HECA) 14.08.2020 13:00 UTC Zobrazit METAR
HECA 141300Z 33008KT CAVOK 36/11 Q1005 NOSIG
Canberra (YSCB) 14.08.2020 13:00 UTC Zobrazit METAR
YSCB 141300Z AUTO 00000KT 9999 -RA SCT034 BKN042 OVC055 09/09 Q1012 RERA
Caracas (SVMP) Zatím nenačteno  
Cayenne (SOCA) 14.08.2020 13:00 UTC Zobrazit METAR
SOCA 141300Z AUTO 12007KT 070V170 9999 FEW025 30/23 Q1011 TEMPO 4000 SHRA BKN018TCU
Charlotte Amalie (TIST) 14.08.2020 12:53 UTC Zobrazit METAR
TIST 141253Z 06012KT 10SM FEW028 31/23 A2995 RMK AO2 SLP140 T03110233
Chisinau (LUKK) 14.08.2020 13:00 UTC Zobrazit METAR
LUKK 141300Z 26005KT 210V320 CAVOK 28/08 Q1015 R09/CLRD// NOSIG
Colombo (VCBI) 14.08.2020 13:10 UTC Zobrazit METAR
VCBI 141310Z 23008KT 9999 SCT018 27/24 Q1007 NOSIG
Conakry (GUCY) 14.08.2020 13:00 UTC Zobrazit METAR
GUCY 141300Z 27008KT 9999 BKN015 29/23 Q1014 NOSIG
Constanta (LRCK) 14.08.2020 13:00 UTC Zobrazit METAR
LRCK 141300Z 14015KT CAVOK 27/12 Q1014 NOSIG
Constantine (DABC) 14.08.2020 13:00 UTC Zobrazit METAR
DABC 141300Z 28013KT 240V330 9999 FEW033 BKN100 38/11 Q1017
Copenhagen (EKCH) 14.08.2020 02:50 UTC Zobrazit METAR
EKCH 140250Z 12005KT CAVOK 16/11 Q1015 NOSIG
Cork (EICK) 14.08.2020 12:00 UTC Zobrazit METAR
EICK 141200Z 12005KT 2000 -RADZ OVC002 18/17 Q1015 TEMPO 2000 BR BKN004
Cotonou (DBBB) 14.08.2020 13:00 UTC Zobrazit METAR
DBBB 141300Z 23013KT 9999 SCT012 27/23 Q1011 NOSIG
Curacao Island (TNCC) 14.08.2020 13:00 UTC Zobrazit METAR
TNCC 141300Z 09009KT 9999 SCT019 31/24 Q1011 NOSIG
Reklama

Počasí na Váš email

Emaily jsou bez reklamy a bez spamu



Odhlásit newsletter




Další české internetové stránky (nejen) o počasí najdete v katalogu TOPlist - weby o počasí nebo vyhledejte na internetu, co jste tu na 🌞 Slunečnu ⛅ zatím nenašli:
⭐ Přidat Slunečno.cz do oblíbených | 🏠 Nastavit Slunečno.cz jako HOMEPAGE

⬆️ Posunout stránku nahoru ⬆️
Reklama